.
WxDataArchive / Data Records for 2015-01-05
2015-01-04 January 2015 2015-01-06

Data Records for Monday, 05 January 2015

Time	Temp	Chill	HIndex	Humid	Dewpt	 Wind 	HiWind	WindDir	Rain 	Barom
-----	----	-----	------	-----	-----	------	------	-------	-----	-----
00:00	17.8	17.8	17.8	68	9.1	3	9	270	0.00	30.346 
00:05	17.8	17.8	17.8	69	9.4	3	5	270	0.00	30.346 
00:10	17.8	17.8	17.8	69	9.4	2	5	270	0.00	30.346 
00:15	17.8	17.8	17.8	69	9.4	2	5	270	0.00	30.351 
00:20	17.7	17.7	17.7	69	9.3	3	7	270	0.00	30.351 
00:25	17.5	17.5	17.5	68	8.8	3	7	270	0.00	30.351 
00:30	17.3	17.3	17.3	69	8.9	3	6	270	0.00	30.364 
00:35	17.2	11.0	17.2	67	8.2	4	7	270	0.00	30.364 
00:40	17.0	17.0	17.0	65	7.3	3	6	270	0.00	30.364 
00:45	17.0	17.0	17.0	69	8.6	3	7	292	0.00	30.372 
00:50	16.7	16.7	16.7	72	9.3	2	5	270	0.00	30.372 
00:55	16.5	16.5	16.5	73	9.4	2	5	270	0.00	30.372 
01:00	16.2	16.2	16.2	73	9.1	2	5	248	0.00	30.380 
01:05	16.1	16.1	16.1	72	8.7	2	4	248	0.00	30.380 
01:10	15.9	15.9	15.9	72	8.5	3	5	248	0.00	30.380 
01:15	15.7	15.7	15.7	71	8.0	2	5	248	0.00	30.386 
01:20	15.6	15.6	15.6	71	7.9	2	4	270	0.00	30.386 
01:25	15.4	15.4	15.4	70	7.4	3	5	270	0.00	30.386 
01:30	15.2	15.2	15.2	69	6.9	2	4	248	0.00	30.400 
01:35	15.1	15.1	15.1	69	6.8	3	6	270	0.00	30.400 
01:40	14.8	14.8	14.8	68	6.2	3	6	248	0.00	30.400 
01:45	14.6	14.6	14.6	68	6.0	3	7	248	0.00	30.413 
01:50	14.4	7.7	14.4	67	5.5	4	7	248	0.00	30.413 
01:55	14.4	14.4	14.4	67	5.5	3	7	270	0.00	30.413 
02:00	14.1	14.1	14.1	67	5.2	3	6	270	0.00	30.424 
02:05	14.0	14.0	14.0	66	4.8	3	10	270	0.00	30.424 
02:10	13.8	13.8	13.8	67	4.9	3	5	270	0.00	30.424 
02:15	13.6	13.6	13.6	66	4.4	3	9	248	0.00	30.435 
02:20	13.1	13.1	13.1	66	3.9	3	5	248	0.00	30.435 
02:25	12.9	12.9	12.9	66	3.7	3	6	270	0.00	30.435 
02:30	12.8	12.8	12.8	67	3.9	2	4	248	0.00	30.439 
02:35	12.6	12.6	12.6	67	3.8	2	5	270	0.00	30.439 
02:40	12.3	12.3	12.3	67	3.5	3	6	270	0.00	30.439 
02:45	12.1	12.1	12.1	68	3.6	3	6	270	0.00	30.452 
02:50	11.7	11.7	11.7	68	3.2	3	6	248	0.00	30.452 
02:55	11.6	11.6	11.6	68	3.1	3	6	248	0.00	30.452 
03:00	11.4	11.4	11.4	67	2.6	3	7	270	0.00	30.461 
03:05	11.4	11.4	11.4	67	2.6	2	6	292	0.00	30.461 
03:10	11.2	11.2	11.2	67	2.4	2	5	292	0.00	30.461 
03:15	11.1	11.1	11.1	67	2.3	3	5	292	0.00	30.470 
03:20	10.9	10.9	10.9	67	2.1	3	5	270	0.00	30.470 
03:25	10.7	10.7	10.7	67	1.9	3	5	270	0.00	30.470 
03:30	10.7	10.7	10.7	67	1.9	2	6	270	0.00	30.473 
03:35	10.5	3.2	10.5	66	1.4	4	12	292	0.00	30.473 
03:40	10.5	10.5	10.5	67	1.7	2	4	270	0.00	30.473 
03:45	10.4	10.4	10.4	67	1.6	1	3	315	0.00	30.474 
03:50	10.2	10.2	10.2	67	1.5	2	4	270	0.00	30.474 
03:55	10.0	10.0	10.0	66	0.9	3	5	270	0.00	30.474 
04:00	9.9	9.9	9.9	66	0.8	3	5	270	0.00	30.476 
04:05	9.9	9.9	9.9	67	1.2	2	5	292	0.00	30.476 
04:10	9.9	9.9	9.9	67	1.2	2	5	270	0.00	30.476 
04:15	9.7	9.7	9.7	67	1.0	3	7	292	0.00	30.478 
04:20	9.5	9.5	9.5	67	0.8	3	5	292	0.00	30.478 
04:25	9.5	9.5	9.5	67	0.8	2	4	270	0.00	30.478 
04:30	9.3	9.3	9.3	67	0.6	3	7	292	0.00	30.486 
04:35	9.2	9.2	9.2	67	0.5	2	5	270	0.00	30.486 
04:40	9.0	9.0	9.0	67	0.3	3	7	270	0.00	30.486 
04:45	8.8	8.8	8.8	67	0.1	3	6	292	0.00	30.490 
04:50	8.8	8.8	8.8	67	0.1	2	6	270	0.00	30.490 
04:55	8.6	8.6	8.6	67	-0.1	3	6	270	0.00	30.490 
05:00	8.6	8.6	8.6	67	-0.1	3	5	270	0.00	30.498 
05:05	8.3	8.3	8.3	67	-0.4	3	7	270	0.00	30.498 
05:10	8.3	8.3	8.3	67	-0.4	3	7	270	0.00	30.498 
05:15	8.1	8.1	8.1	67	-0.6	3	6	270	0.00	30.506 
05:20	7.9	7.9	7.9	67	-0.7	3	6	270	0.00	30.506 
05:25	7.7	7.7	7.7	67	-0.9	2	6	270	0.00	30.506 
05:30	7.6	7.6	7.6	67	-1.0	3	6	270	0.00	30.509 
05:35	7.4	7.4	7.4	67	-1.2	3	6	270	0.00	30.509 
05:40	7.4	7.4	7.4	67	-1.2	3	5	292	0.00	30.509 
05:45	7.4	7.4	7.4	68	-0.9	2	4	292	0.00	30.523 
05:50	7.2	7.2	7.2	68	-1.1	2	5	270	0.00	30.523 
05:55	7.0	7.0	7.0	68	-1.3	2	4	270	0.00	30.523 
06:00	6.9	6.9	6.9	68	-1.4	2	4	270	0.00	30.526 
06:05	6.9	6.9	6.9	68	-1.4	2	5	270	0.00	30.526 
06:10	6.7	6.7	6.7	68	-1.6	2	4	270	0.00	30.526 
06:15	6.5	6.5	6.5	68	-1.8	3	5	270	0.00	30.533 
06:20	6.5	6.5	6.5	69	-1.5	2	5	270	0.00	30.533 
06:25	6.5	6.5	6.5	69	-1.5	2	4	248	0.00	30.533 
06:30	6.3	6.3	6.3	69	-1.7	2	4	292	0.00	30.544 
06:35	6.1	6.1	6.1	69	-1.9	3	6	270	0.00	30.544 
06:40	6.1	6.1	6.1	69	-1.9	2	5	270	0.00	30.544 
06:45	6.1	6.1	6.1	69	-1.9	1	4	292	0.00	30.554 
06:50	6.0	6.0	6.0	69	-1.9	1	3	292	0.00	30.554 
06:55	6.0	6.0	6.0	69	-1.9	2	5	270	0.00	30.554 
07:00	5.8	5.8	5.8	69	-2.1	2	4	270	0.00	30.561 
07:05	5.6	5.6	5.6	68	-2.6	3	6	292	0.00	30.561 
07:10	5.6	5.6	5.6	69	-2.3	2	3	270	0.00	30.561 
07:15	5.4	5.4	5.4	69	-2.5	2	4	270	0.00	30.570 
07:20	5.4	5.4	5.4	69	-2.5	1	3	270	0.00	30.570 
07:25	5.2	5.2	5.2	69	-2.7	1	4	270	0.00	30.570 
07:30	5.0	5.0	5.0	69	-2.9	1	5	270	0.00	30.578 
07:35	5.0	5.0	5.0	68	-3.2	2	5	270	0.00	30.578 
07:40	4.8	4.8	4.8	68	-3.4	1	3	270	0.00	30.578 
07:45	4.8	4.8	4.8	68	-3.4	1	4	270	0.00	30.579 
07:50	4.7	4.7	4.7	68	-3.5	1	3	270	0.00	30.579 
07:55	4.7	4.7	4.7	67	-3.8	3	5	270	0.00	30.579 
08:00	4.5	4.5	4.5	67	-4.0	1	4	270	0.00	30.591 
08:05	4.5	4.5	4.5	67	-4.0	1	3	270	0.00	30.591 
08:10	4.5	4.5	4.5	67	-4.0	1	3	270	0.00	30.591 
08:15	4.3	4.3	4.3	67	-4.2	2	4	248	0.00	30.597 
08:20	4.3	4.3	4.3	67	-4.2	2	5	270	0.00	30.597 
08:25	4.1	4.1	4.1	67	-4.4	1	4	270	0.00	30.597 
08:30	4.1	4.1	4.1	67	-4.4	2	4	270	0.00	30.608 
08:35	4.1	4.1	4.1	67	-4.4	2	4	270	0.00	30.608 
08:40	4.1	4.1	4.1	67	-4.4	1	4	270	0.00	30.608 
08:45	4.1	4.1	4.1	67	-4.4	2	5	292	0.00	30.614 
08:50	4.1	4.1	4.1	67	-4.4	1	4	292	0.00	30.614 
08:55	4.3	4.3	4.3	67	-4.2	1	3	292	0.00	30.614 
09:00	4.3	4.3	4.3	67	-4.2	0	2	292	0.00	30.626 
09:05	4.5	4.5	4.5	67	-4.0	2	5	248	0.00	30.626 
09:10	4.3	4.3	4.3	67	-4.2	1	4	270	0.00	30.626 
09:15	4.3	4.3	4.3	67	-4.2	2	5	270	0.00	30.629 
09:20	4.3	4.3	4.3	66	-4.5	2	4	270	0.00	30.629 
09:25	4.3	4.3	4.3	66	-4.5	2	5	270	0.00	30.629 
09:30	4.3	4.3	4.3	65	-4.8	2	5	270	0.00	30.638 
09:35	4.5	4.5	4.5	66	-4.3	2	4	292	0.00	30.638 
09:40	4.7	4.7	4.7	66	-4.1	2	4	270	0.00	30.638 
09:45	4.8	4.8	4.8	66	-4.0	1	3	270	0.00	30.640 
09:50	4.8	4.8	4.8	65	-4.3	1	3	248	0.00	30.640 
09:55	5.0	5.0	5.0	66	-3.8	1	5	248	0.00	30.640 
10:00	4.8	4.8	4.8	65	-4.3	2	4	248	0.00	30.644 
10:05	5.0	5.0	5.0	65	-4.2	1	6	270	0.00	30.644 
10:10	5.0	5.0	5.0	65	-4.2	1	4	248	0.00	30.644 
10:15	5.2	5.2	5.2	65	-4.0	2	6	270	0.00	30.647 
10:20	5.4	5.4	5.4	65	-3.8	1	4	270	0.00	30.647 
10:25	5.8	5.8	5.8	64	-3.7	1	4	292	0.00	30.647 
10:30	5.8	5.8	5.8	63	-4.0	2	4	248	0.00	30.648 
10:35	6.0	6.0	6.0	62	-4.2	2	4	248	0.00	30.648 
10:40	6.0	6.0	6.0	62	-4.2	1	5	248	0.00	30.648 
10:45	6.1	6.1	6.1	62	-4.1	2	4	270	0.00	30.647 
10:50	6.1	6.1	6.1	62	-4.1	1	4	270	0.00	30.647 
10:55	6.3	6.3	6.3	61	-4.2	2	5	248	0.00	30.647 
11:00	6.5	6.5	6.5	62	-3.7	2	4	270	0.00	30.642 
11:05	6.7	6.7	6.7	61	-3.9	2	5	270	0.00	30.642 
11:10	6.3	6.3	6.3	61	-4.2	2	4	270	0.00	30.642 
11:15	6.5	6.5	6.5	62	-3.7	2	4	248	0.00	30.645 
11:20	6.5	6.5	6.5	62	-3.7	2	6	248	0.00	30.645 
11:25	6.7	6.7	6.7	62	-3.5	1	4	292	0.00	30.645 
11:30	6.7	6.7	6.7	61	-3.9	1	4	292	0.00	30.638 
11:35	7.0	7.0	7.0	62	-3.2	1	3	292	0.00	30.638 
11:40	7.2	7.2	7.2	61	-3.4	2	5	248	0.00	30.638 
11:45	7.0	7.0	7.0	61	-3.6	2	5	248	0.00	30.632 
11:50	6.9	6.9	6.9	60	-4.0	2	6	248	0.00	30.632 
11:55	6.9	6.9	6.9	61	-3.7	2	4	248	0.00	30.632 
12:00	7.4	7.4	7.4	61	-3.2	1	5	248	0.00	30.621 
12:05	7.4	7.4	7.4	60	-3.5	1	6	270	0.00	30.621 
12:10	7.6	7.6	7.6	60	-3.3	2	5	270	0.00	30.621 
12:15	7.6	7.6	7.6	60	-3.3	1	3	248	0.00	30.616 
12:20	7.6	7.6	7.6	59	-3.7	2	5	270	0.00	30.616 
12:25	7.7	7.7	7.7	58	-4.0	2	4	248	0.00	30.616 
12:30	7.7	7.7	7.7	58	-4.0	2	6	248	0.00	30.614 
12:35	7.9	7.9	7.9	58	-3.8	2	4	292	0.00	30.614 
12:40	8.3	8.3	8.3	59	-3.0	1	4	270	0.00	30.614 
12:45	8.4	8.4	8.4	58	-3.3	1	5	292	0.00	30.609 
12:50	8.6	8.6	8.6	57	-3.5	2	4	248	0.00	30.609 
12:55	8.4	8.4	8.4	55	-4.4	2	4	248	0.00	30.609 
13:00	8.3	8.3	8.3	56	-4.1	2	5	248	0.00	30.601 
13:05	8.3	8.3	8.3	56	-4.1	2	5	248	0.00	30.601 
13:10	8.6	8.6	8.6	58	-3.1	2	5	292	0.00	30.601 
13:15	8.6	8.6	8.6	55	-4.2	2	6	248	0.00	30.600 
13:20	8.3	8.3	8.3	54	-4.9	1	4	248	0.00	30.600 
13:25	7.9	7.9	7.9	54	-5.3	2	5	248	0.00	30.600 
13:30	8.3	8.3	8.3	56	-4.1	2	6	270	0.00	30.592 
13:35	8.4	8.4	8.4	55	-4.4	1	4	270	0.00	30.592 
13:40	8.8	8.8	8.8	56	-3.7	1	4	270	0.00	30.592 
13:45	9.0	9.0	9.0	54	-4.2	2	3	270	0.00	30.582 
13:50	9.2	9.2	9.2	54	-4.0	2	4	270	0.00	30.582 
13:55	9.2	9.2	9.2	51	-5.2	2	5	270	0.00	30.582 
14:00	9.0	9.0	9.0	52	-5.0	1	4	270	0.00	30.585 
14:05	9.2	9.2	9.2	53	-4.4	1	5	270	0.00	30.585 
14:10	9.2	9.2	9.2	51	-5.2	1	4	270	0.00	30.585 
14:15	9.2	9.2	9.2	53	-4.4	1	6	270	0.00	30.577 
14:20	9.0	9.0	9.0	50	-5.8	2	4	292	0.00	30.577 
14:25	9.0	9.0	9.0	51	-5.4	2	5	292	0.00	30.577 
14:30	9.0	9.0	9.0	51	-5.4	2	4	248	0.00	30.596 
14:35	9.0	9.0	9.0	50	-5.8	2	4	292	0.00	30.596 
14:40	9.0	9.0	9.0	53	-4.6	1	3	248	0.00	30.596 
14:45	9.2	9.2	9.2	52	-4.8	2	5	292	0.00	30.588 
14:50	9.0	9.0	9.0	54	-4.2	1	3	270	0.00	30.588 
14:55	9.0	9.0	9.0	53	-4.6	1	4	270	0.00	30.588 
15:00	9.0	9.0	9.0	53	-4.6	1	3	270	0.00	30.590 
15:05	9.0	9.0	9.0	53	-4.6	1	4	270	0.00	30.590 
15:10	8.8	8.8	8.8	54	-4.4	1	4	270	0.00	30.590 
15:15	8.6	8.6	8.6	53	-5.0	1	4	248	0.00	30.591 
15:20	8.6	8.6	8.6	54	-4.6	1	5	248	0.00	30.591 
15:25	8.6	8.6	8.6	54	-4.6	1	3	248	0.00	30.591 
15:30	8.6	8.6	8.6	54	-4.6	1	4	270	0.00	30.596 
15:35	8.4	8.4	8.4	54	-4.8	1	2	270	0.00	30.596 
15:40	8.4	8.4	8.4	54	-4.8	1	3	270	0.00	30.596 
15:45	8.3	8.3	8.3	55	-4.5	0	3	270	0.00	30.595 
15:50	8.3	8.3	8.3	56	-4.1	0	3	270	0.00	30.595 
15:55	8.3	8.3	8.3	55	-4.5	1	2	292	0.00	30.595 
16:00	8.1	8.1	8.1	55	-4.7	1	2	292	0.00	30.590 
16:05	8.1	8.1	8.1	56	-4.3	1	3	292	0.00	30.590 
16:10	7.9	7.9	7.9	56	-4.5	1	3	270	0.00	30.590 
16:15	7.9	7.9	7.9	57	-4.1	1	2	270	0.00	30.594 
16:20	7.9	7.9	7.9	57	-4.1	0	2	270	0.00	30.594 
16:25	8.1	8.1	8.1	58	-3.6	1	2	270	0.00	30.594 
16:30	7.9	7.9	7.9	57	-4.1	1	4	270	0.00	30.599 
16:35	7.7	7.7	7.7	57	-4.3	1	2	270	0.00	30.599 
16:40	7.7	7.7	7.7	57	-4.3	0	2	270	0.00	30.599 
16:45	7.6	7.6	7.6	57	-4.4	1	3	270	0.00	30.603 
16:50	7.6	7.6	7.6	57	-4.4	1	4	248	0.00	30.603 
16:55	7.4	7.4	7.4	57	-4.6	1	3	248	0.00	30.603 
17:00	7.4	7.4	7.4	58	-4.2	0	2	248	0.00	30.604 
17:05	7.4	7.4	7.4	58	-4.2	1	2	248	0.00	30.604 
17:10	7.2	7.2	7.2	58	-4.4	1	2	248	0.00	30.604 
17:15	7.2	7.2	7.2	58	-4.4	1	2	248	0.00	30.593 
17:20	7.2	7.2	7.2	59	-4.1	1	2	248	0.00	30.593 
17:25	7.2	7.2	7.2	59	-4.1	0	2	248	0.00	30.593 
17:30	7.4	7.4	7.4	59	-3.9	0	2	248	0.00	30.579 
17:35	7.2	7.2	7.2	59	-4.1	0	2	248	0.00	30.579 
17:40	7.2	7.2	7.2	59	-4.1	0	2	248	0.00	30.579 
17:45	7.2	7.2	7.2	59	-4.1	0	2	248	0.00	30.590 
17:50	7.2	7.2	7.2	60	-3.7	0	3	248	0.00	30.590 
17:55	7.2	7.2	7.2	60	-3.7	0	2	248	0.00	30.590 
18:00	7.2	7.2	7.2	60	-3.7	0	3	248	0.00	30.576 
18:05	7.2	7.2	7.2	60	-3.7	0	2	248	0.00	30.576 
18:10	7.2	7.2	7.2	60	-3.7	0	3	248	0.00	30.576 
18:15	7.2	7.2	7.2	60	-3.7	0	1	248	0.00	30.561 
18:20	7.2	7.2	7.2	60	-3.7	0	2	248	0.00	30.561 
18:25	7.4	7.4	7.4	61	-3.2	0	1	248	0.00	30.561 
18:30	7.4	7.4	7.4	61	-3.2	0	2	248	0.00	30.552 
18:35	7.2	7.2	7.2	60	-3.7	0	2	248	0.00	30.552 
18:40	7.2	7.2	7.2	62	-3.0	0	3	248	0.00	30.552 
18:45	7.4	7.4	7.4	62	-2.9	0	3	248	0.00	30.563 
18:50	7.4	7.4	7.4	62	-2.9	1	3	248	0.00	30.563 
18:55	7.4	7.4	7.4	62	-2.9	0	1	248	0.00	30.563 
19:00	7.4	7.4	7.4	62	-2.9	1	3	248	0.00	30.569 
19:05	7.4	7.4	7.4	62	-2.9	0	3	248	0.00	30.569 
19:10	7.6	7.6	7.6	61	-3.0	1	3	248	0.00	30.569 
19:15	7.6	7.6	7.6	61	-3.0	0	2	248	0.00	30.566 
19:20	7.6	7.6	7.6	62	-2.7	0	3	248	0.00	30.566 
19:25	7.7	7.7	7.7	62	-2.6	1	4	248	0.00	30.566 
19:30	7.7	7.7	7.7	62	-2.6	0	2	248	0.00	30.549 
19:35	7.7	7.7	7.7	63	-2.2	0	3	248	0.00	30.549 
19:40	7.9	7.9	7.9	64	-1.7	0	2	248	0.00	30.549 
19:45	7.9	7.9	7.9	64	-1.7	0	2	270	0.00	30.538 
19:50	7.9	7.9	7.9	64	-1.7	0	1	270	0.00	30.538 
19:55	7.9	7.9	7.9	64	-1.7	0	1	270	0.00	30.538 
20:00	7.9	7.9	7.9	63	-2.0	0	1	270	0.00	30.519 
20:05	8.1	8.1	8.1	63	-1.9	0	0	---	0.00	30.519 
20:10	8.1	8.1	8.1	62	-2.2	0	1	270	0.00	30.519 
20:15	8.1	8.1	8.1	62	-2.2	0	2	270	0.00	30.505 
20:20	8.1	8.1	8.1	62	-2.2	0	1	270	0.00	30.505 
20:25	8.1	8.1	8.1	62	-2.2	0	0	---	0.00	30.505 
20:30	8.3	8.3	8.3	62	-2.0	0	0	---	0.00	30.486 
20:35	8.3	8.3	8.3	62	-2.0	0	0	---	0.00	30.486 
20:40	8.4	8.4	8.4	62	-1.9	0	1	270	0.00	30.486 
20:45	8.4	8.4	8.4	62	-1.9	0	1	270	0.00	30.477 
20:50	8.4	8.4	8.4	62	-1.9	0	1	270	0.00	30.477 
20:55	8.6	8.6	8.6	62	-1.7	0	1	270	0.00	30.477 
21:00	8.6	8.6	8.6	63	-1.4	0	1	270	0.00	30.473 
21:05	8.6	8.6	8.6	63	-1.4	0	3	90	0.00	30.473 
21:10	8.8	8.8	8.8	64	-0.9	0	1	90	0.00	30.473 
21:15	8.8	8.8	8.8	64	-0.9	0	1	90	0.00	30.468 
21:20	8.8	8.8	8.8	63	-1.2	0	1	90	0.00	30.468 
21:25	8.6	8.6	8.6	63	-1.4	0	1	90	0.00	30.468 
21:30	8.6	8.6	8.6	63	-1.4	0	2	90	0.00	30.452 
21:35	8.8	8.8	8.8	64	-0.9	0	1	90	0.00	30.452 
21:40	8.8	8.8	8.8	65	-0.5	0	2	90	0.00	30.452 
21:45	9.0	9.0	9.0	64	-0.7	0	2	90	0.00	30.445 
21:50	9.0	9.0	9.0	64	-0.7	0	2	90	0.00	30.445 
21:55	9.0	9.0	9.0	65	-0.3	0	2	90	0.00	30.445 
22:00	9.0	9.0	9.0	65	-0.3	0	2	90	0.00	30.437 
22:05	9.2	9.2	9.2	65	-0.1	0	4	90	0.00	30.437 
22:10	9.2	9.2	9.2	65	-0.1	0	3	90	0.00	30.437 
22:15	9.2	9.2	9.2	65	-0.1	0	2	90	0.00	30.427 
22:20	9.2	9.2	9.2	65	-0.1	0	3	90	0.00	30.427 
22:25	9.3	9.3	9.3	65	-0.0	0	0	---	0.00	30.427 
22:30	9.3	9.3	9.3	65	-0.0	0	1	90	0.00	30.433 
22:35	9.5	9.5	9.5	65	0.1	0	0	---	0.00	30.433 
22:40	9.5	9.5	9.5	65	0.1	0	1	90	0.00	30.433 
22:45	9.5	9.5	9.5	66	0.5	0	1	90	0.00	30.460 
22:50	9.5	9.5	9.5	68	1.1	0	0	---	0.00	30.460 
22:55	9.5	9.5	9.5	69	1.4	0	0	---	0.00	30.460 
23:00	9.5	9.5	9.5	71	2.0	0	0	---	0.00	30.461 
23:05	9.5	9.5	9.5	72	2.3	0	0	---	0.00	30.461 
23:10	9.5	9.5	9.5	73	2.6	0	1	90	0.00	30.461 
23:15	9.5	9.5	9.5	74	2.9	0	0	---	0.00	30.460 
23:20	9.3	9.3	9.3	75	3.0	0	0	---	0.00	30.460 
23:25	9.3	9.3	9.3	76	3.3	0	0	---	0.00	30.460 
23:30	9.3	9.3	9.3	76	3.3	0	0	---	0.00	30.450 
23:35	9.3	9.3	9.3	77	3.6	0	0	---	0.00	30.450 
23:40	9.2	9.2	9.2	77	3.5	0	0	---	0.00	30.450 
23:45	9.2	9.2	9.2	78	3.8	0	0	---	0.00	30.445 
23:50	9.2	9.2	9.2	78	3.8	0	0	---	0.00	30.445 
23:55	9.2	9.2	9.2	78	3.8	0	0	---	0.00	30.445 

CoCoRaHS
IN-AL-39
A2 Web Hosting
Creative Commons License
GoDaddy
search engine by freefind advanced

loaded 2018-11-15 17:50:11 • last modified 2010-11-18 10:43:29
Privacy PolicyDisclaimer
• wx.awcolley.com is powered by PmWiki v.2002016 •
• all content (unless otherwise noted) © 2018 A W Colley